createdAt,value
2018-05-02T00:01:33.994Z,9.27
2018-05-02T00:04:38.316Z,9.38
2018-05-02T00:07:41.724Z,9.49
2018-05-02T00:10:44.984Z,9.54
2018-05-02T00:13:48.299Z,9.47
2018-05-02T00:16:53.567Z,9.42
2018-05-02T00:19:56.844Z,9.38
2018-05-02T00:23:00.144Z,9.00
2018-05-02T00:26:03.439Z,8.34
2018-05-02T00:29:07.691Z,8.09
2018-05-02T00:32:10.853Z,8.14
2018-05-02T00:35:14.192Z,8.21
2018-05-02T00:38:17.825Z,8.46
2018-05-02T00:41:22.051Z,8.60
2018-05-02T00:44:25.321Z,8.83
2018-05-02T00:47:28.580Z,8.98
2018-05-02T00:50:31.874Z,9.02
2018-05-02T00:53:35.263Z,9.10
2018-05-02T00:56:38.504Z,9.03
2018-05-02T00:59:41.763Z,9.03
2018-05-02T01:02:45.224Z,8.96
2018-05-02T01:05:48.568Z,8.81
2018-05-02T01:08:53.207Z,8.66
2018-05-02T01:11:56.591Z,8.57
2018-05-02T01:15:00.335Z,8.48
2018-05-02T01:18:03.508Z,8.45
2018-05-02T01:21:06.835Z,8.45
2018-05-02T01:24:10.145Z,8.52
2018-05-02T01:27:13.492Z,8.42
2018-05-02T01:30:17.782Z,8.42
2018-05-02T01:33:22.079Z,8.42
2018-05-02T01:36:25.304Z,8.48
2018-05-02T01:39:29.656Z,8.52
2018-05-02T01:42:32.951Z,8.48
2018-05-02T01:45:36.247Z,8.47
2018-05-02T01:48:44.342Z,8.49
2018-05-02T01:51:47.655Z,8.57
2018-05-02T01:54:51.947Z,8.60
2018-05-02T01:57:55.175Z,8.66
2018-05-02T02:00:58.467Z,8.77
2018-05-02T02:04:01.767Z,8.87
2018-05-02T02:07:05.159Z,8.91
2018-05-02T02:10:08.470Z,8.75
2018-05-02T02:13:11.768Z,8.79
2018-05-02T02:16:15.078Z,8.77
2018-05-02T02:19:18.353Z,8.74
2018-05-02T02:22:22.069Z,8.63
2018-05-02T02:25:25.355Z,8.57
2018-05-02T02:28:29.079Z,8.60
2018-05-02T02:31:33.083Z,8.65
2018-05-02T02:34:36.485Z,8.69
2018-05-02T02:37:39.775Z,8.71
2018-05-02T02:40:43.054Z,8.65
2018-05-02T02:43:46.369Z,8.58
2018-05-02T02:46:49.684Z,8.62
2018-05-02T02:49:53.087Z,8.72
2018-05-02T02:52:56.369Z,8.77
2018-05-02T02:55:59.686Z,8.88
2018-05-02T02:59:03.712Z,8.87
2018-05-02T03:02:06.931Z,8.91
2018-05-02T03:05:10.182Z,8.84
2018-05-02T03:08:13.539Z,8.88
2018-05-02T03:11:16.789Z,8.98
2018-05-02T03:14:20.015Z,9.01
2018-05-02T03:17:23.202Z,9.04
2018-05-02T03:20:26.465Z,9.01
2018-05-02T03:23:31.258Z,8.99
2018-05-02T03:26:34.483Z,8.88
2018-05-02T03:29:37.783Z,8.91
2018-05-02T03:32:41.075Z,8.96
2018-05-02T03:35:44.387Z,8.89
2018-05-02T03:38:47.615Z,8.69
2018-05-02T03:41:50.877Z,8.51
2018-05-02T03:44:54.180Z,8.01
2018-05-02T03:47:57.878Z,7.52
2018-05-02T03:51:01.181Z,7.30
2018-05-02T03:54:04.584Z,7.21
2018-05-02T03:57:08.901Z,7.15
2018-05-02T04:00:23.498Z,7.28
2018-05-02T04:03:38.209Z,7.32
2018-05-02T04:06:50.376Z,7.23
2018-05-02T04:09:53.627Z,7.11
2018-05-02T04:12:57.820Z,7.09
2018-05-02T04:16:01.097Z,7.09
2018-05-02T04:19:04.305Z,7.32
2018-05-02T04:22:07.541Z,7.30
2018-05-02T04:25:10.819Z,7.22
2018-05-02T04:28:14.048Z,7.37
2018-05-02T04:31:17.404Z,7.51
2018-05-02T04:34:20.556Z,7.66
2018-05-02T04:37:23.816Z,7.77
2018-05-02T04:40:27.071Z,7.71
2018-05-02T04:43:30.442Z,7.69
2018-05-02T04:46:34.543Z,7.61
2018-05-02T04:49:37.888Z,7.78
2018-05-02T04:52:41.241Z,7.89
2018-05-02T04:55:44.573Z,7.99
2018-05-02T04:58:47.926Z,8.17
2018-05-02T05:01:51.225Z,8.21
2018-05-02T05:04:54.528Z,8.24
2018-05-02T05:07:58.851Z,8.37
2018-05-02T05:11:04.311Z,8.42
2018-05-02T05:14:07.587Z,8.57
2018-05-02T05:17:10.883Z,8.58
2018-05-02T05:20:14.223Z,8.65
2018-05-02T05:23:17.483Z,8.73
2018-05-02T05:26:20.651Z,8.75
2018-05-02T05:29:23.978Z,8.80
2018-05-02T05:32:27.275Z,8.83
2018-05-02T05:35:31.297Z,8.97
2018-05-02T05:38:34.580Z,9.09
2018-05-02T05:41:37.887Z,9.19
2018-05-02T05:44:41.171Z,9.19
2018-05-02T05:47:44.415Z,9.36
2018-05-02T05:50:47.681Z,9.44
2018-05-02T05:53:51.067Z,9.57
2018-05-02T05:56:54.359Z,9.69
2018-05-02T05:59:57.812Z,9.69
2018-05-02T06:03:00.963Z,9.74
2018-05-02T06:06:04.251Z,9.82
2018-05-02T06:09:07.675Z,9.81
2018-05-02T06:12:12.000Z,9.93
2018-05-02T06:15:15.226Z,10.02
2018-05-02T06:18:18.414Z,10.05
2018-05-02T06:21:21.603Z,10.05
2018-05-02T06:24:24.781Z,10.01
2018-05-02T06:27:28.044Z,10.14
2018-05-02T06:30:31.359Z,10.27
2018-05-02T06:33:34.647Z,10.40
2018-05-02T06:36:38.530Z,10.57
2018-05-02T06:39:41.775Z,10.54
2018-05-02T06:42:45.059Z,10.53
2018-05-02T06:45:49.384Z,10.55
2018-05-02T06:48:52.692Z,10.53
2018-05-02T06:51:56.067Z,10.52
2018-05-02T06:54:59.319Z,10.61
2018-05-02T06:58:02.469Z,10.77
2018-05-02T07:01:05.768Z,10.70
2018-05-02T07:04:09.667Z,10.65
2018-05-02T07:07:12.997Z,10.76
2018-05-02T07:10:16.312Z,10.76
2018-05-02T07:13:19.589Z,10.74
2018-05-02T07:16:22.877Z,10.70
2018-05-02T07:19:26.092Z,10.68
2018-05-02T07:22:29.336Z,10.68
2018-05-02T07:25:32.507Z,10.67
2018-05-02T07:28:35.695Z,10.82
2018-05-02T07:31:39.784Z,10.84
2018-05-02T07:34:43.106Z,10.91
2018-05-02T07:37:46.306Z,10.97
2018-05-02T07:40:49.576Z,11.02
2018-05-02T07:43:52.855Z,11.16
2018-05-02T07:46:56.157Z,11.27
2018-05-02T07:49:59.465Z,11.40
2018-05-02T07:53:02.640Z,11.47
2018-05-02T07:56:05.910Z,11.55
2018-05-02T07:59:10.001Z,11.64
2018-05-02T08:02:13.155Z,11.76
2018-05-02T08:05:16.397Z,11.81
2018-05-02T08:08:19.666Z,11.93
2018-05-02T08:11:23.010Z,12.06
2018-05-02T08:14:26.241Z,12.08
2018-05-02T08:17:29.554Z,12.35
2018-05-02T08:20:32.720Z,12.66
2018-05-02T08:23:36.033Z,12.65
2018-05-02T08:26:40.187Z,12.51
2018-05-02T08:29:43.380Z,12.45
2018-05-02T08:32:46.714Z,12.50
2018-05-02T08:35:50.977Z,12.62
2018-05-02T08:38:54.362Z,12.71
2018-05-02T08:41:57.680Z,12.79
2018-05-02T08:45:00.832Z,12.82
2018-05-02T08:48:04.139Z,12.86
2018-05-02T08:51:08.404Z,12.71
2018-05-02T08:54:11.700Z,12.69
2018-05-02T08:57:14.907Z,12.88
2018-05-02T09:00:18.159Z,12.93
2018-05-02T09:03:21.452Z,13.01
2018-05-02T09:06:24.758Z,13.00
2018-05-02T09:09:28.202Z,13.18
2018-05-02T09:12:31.404Z,13.12
2018-05-02T09:15:34.687Z,13.10
2018-05-02T09:18:39.623Z,13.20
2018-05-02T09:21:43.905Z,13.34
2018-05-02T09:24:47.195Z,13.42
2018-05-02T09:27:50.500Z,13.44
2018-05-02T09:30:53.748Z,13.46
2018-05-02T09:33:57.007Z,13.47
2018-05-02T09:37:00.288Z,13.70
2018-05-02T09:40:03.655Z,13.89
2018-05-02T09:43:06.953Z,13.85
2018-05-02T09:46:10.108Z,13.97
2018-05-02T09:49:13.381Z,13.94
2018-05-02T09:52:17.767Z,13.96
2018-05-02T09:55:21.436Z,14.11
2018-05-02T09:58:24.737Z,14.18
2018-05-02T10:01:27.964Z,14.21
2018-05-02T10:04:31.249Z,14.26
2018-05-02T10:07:34.453Z,14.48
2018-05-02T10:10:38.335Z,14.61
2018-05-02T10:13:41.753Z,14.59
2018-05-02T10:16:44.966Z,14.72
2018-05-02T10:19:48.143Z,14.81
2018-05-02T10:22:51.419Z,15.03
2018-05-02T10:25:54.661Z,15.08
2018-05-02T10:28:57.992Z,15.01
2018-05-02T10:32:01.863Z,15.20
2018-05-02T10:35:05.094Z,15.21
2018-05-02T10:38:09.034Z,15.07
2018-05-02T10:41:12.314Z,15.09
2018-05-02T10:44:15.486Z,15.26
2018-05-02T10:47:18.811Z,15.44
2018-05-02T10:50:22.115Z,15.42
2018-05-02T10:53:25.415Z,15.54
2018-05-02T10:56:28.709Z,15.59
2018-05-02T10:59:31.998Z,15.64
2018-05-02T11:02:35.311Z,15.59
2018-05-02T11:05:39.399Z,15.66
2018-05-02T11:08:42.700Z,15.82
2018-05-02T11:11:45.959Z,16.01
2018-05-02T11:14:49.294Z,16.10
2018-05-02T11:17:52.597Z,16.04
2018-05-02T11:20:55.815Z,16.05
2018-05-02T11:23:59.122Z,16.03
2018-05-02T11:27:02.338Z,15.97
2018-05-02T11:30:07.383Z,16.06
2018-05-02T11:33:10.603Z,16.01
2018-05-02T11:36:13.907Z,16.13
2018-05-02T11:39:17.205Z,16.21
2018-05-02T11:42:21.527Z,16.15
2018-05-02T11:45:24.825Z,16.06
2018-05-02T11:48:28.118Z,15.99
2018-05-02T11:51:31.487Z,16.17
2018-05-02T11:54:34.715Z,16.32
2018-05-02T11:57:40.006Z,16.31
2018-05-02T12:00:43.275Z,16.52
2018-05-02T12:03:46.444Z,16.62
2018-05-02T12:06:49.752Z,16.38
2018-05-02T12:09:53.044Z,16.57
2018-05-02T12:12:56.259Z,16.58
2018-05-02T12:15:59.532Z,16.72
2018-05-02T12:19:03.859Z,16.67
2018-05-02T12:22:08.127Z,16.68
2018-05-02T12:25:11.263Z,16.82
2018-05-02T12:28:14.584Z,16.89
2018-05-02T12:31:17.871Z,16.88
2018-05-02T12:34:21.163Z,16.89
2018-05-02T12:37:24.479Z,16.74
2018-05-02T12:40:27.786Z,16.61
2018-05-02T12:43:30.959Z,16.71
2018-05-02T12:46:35.292Z,16.66
2018-05-02T12:49:39.595Z,16.84
2018-05-02T12:52:42.809Z,17.32
2018-05-02T12:55:46.037Z,17.43
2018-05-02T12:58:49.279Z,17.76
2018-05-02T13:01:52.573Z,17.74
2018-05-02T13:04:56.028Z,17.89
2018-05-02T13:07:59.244Z,17.86
2018-05-02T13:11:02.464Z,17.72
2018-05-02T13:14:05.665Z,17.92
2018-05-02T13:17:09.695Z,18.03
2018-05-02T13:20:13.008Z,17.96
2018-05-02T13:23:16.192Z,17.86
2018-05-02T13:29:21.629Z,18.02
2018-05-02T13:32:24.958Z,17.84
2018-05-02T13:35:28.116Z,17.89
2018-05-02T13:38:31.319Z,17.93
2018-05-02T13:41:34.523Z,17.93
2018-05-02T13:44:38.260Z,17.94
2018-05-02T13:47:41.528Z,18.02
2018-05-02T13:50:44.854Z,17.95
2018-05-02T13:53:48.000Z,18.02
2018-05-02T13:56:51.343Z,17.88
2018-05-02T13:59:54.627Z,17.83
2018-05-02T14:02:57.920Z,18.10
2018-05-02T14:06:01.197Z,17.92
2018-05-02T14:09:04.641Z,18.09
2018-05-02T14:12:08.630Z,18.04
2018-05-02T14:15:11.940Z,18.26
2018-05-02T14:18:15.248Z,18.34
2018-05-02T14:21:18.605Z,18.32
2018-05-02T14:24:21.930Z,18.16
2018-05-02T14:27:25.215Z,18.08
2018-05-02T14:30:28.452Z,17.91
2018-05-02T14:33:31.720Z,18.03
2018-05-02T14:36:35.022Z,18.28
2018-05-02T14:39:39.200Z,18.09
2018-05-02T14:42:42.449Z,18.16
2018-05-02T14:45:46.068Z,18.29
2018-05-02T14:48:49.306Z,18.45
2018-05-02T14:51:52.564Z,18.72
2018-05-02T14:54:55.806Z,18.88
2018-05-02T14:57:59.015Z,18.67
2018-05-02T15:01:02.324Z,18.82
2018-05-02T15:04:05.551Z,18.87
2018-05-02T15:07:09.098Z,18.73
2018-05-02T15:10:12.423Z,18.63
2018-05-02T15:13:15.702Z,18.50
2018-05-02T15:16:18.923Z,18.50
2018-05-02T15:19:22.148Z,18.44
2018-05-02T15:22:25.400Z,18.26
2018-05-02T15:25:28.721Z,18.18
2018-05-02T15:28:31.979Z,18.12
2018-05-02T15:31:35.313Z,18.12
2018-05-02T15:34:39.386Z,18.13
2018-05-02T15:37:42.691Z,18.11
2018-05-02T15:40:49.395Z,18.23
2018-05-02T15:43:52.663Z,18.41
2018-05-02T15:46:55.899Z,18.38
2018-05-02T15:49:59.124Z,18.19
2018-05-02T15:53:02.244Z,18.22
2018-05-02T15:56:05.586Z,18.23
2018-05-02T15:59:09.971Z,18.20
2018-05-02T16:02:13.195Z,18.17
2018-05-02T16:05:16.464Z,17.99
2018-05-02T16:08:19.757Z,17.99
2018-05-02T16:11:23.124Z,17.87
2018-05-02T16:14:26.283Z,17.84
2018-05-02T16:17:29.548Z,17.86
2018-05-02T16:20:32.822Z,17.87
2018-05-02T16:23:36.053Z,17.81
2018-05-02T16:26:40.619Z,17.80
2018-05-02T16:29:43.781Z,17.74
2018-05-02T16:32:47.016Z,17.74
2018-05-02T16:35:50.255Z,17.70
2018-05-02T16:38:53.450Z,17.69
2018-05-02T16:41:56.744Z,17.63
2018-05-02T16:44:59.966Z,17.59
2018-05-02T16:48:03.148Z,17.50
2018-05-02T16:51:06.432Z,17.55
2018-05-02T16:54:10.390Z,17.61
2018-05-02T16:57:14.600Z,17.69
2018-05-02T17:00:18.443Z,17.72
2018-05-02T17:03:21.747Z,17.72
2018-05-02T17:06:25.003Z,17.79
2018-05-02T17:09:28.240Z,17.63
2018-05-02T17:12:31.453Z,17.68
2018-05-02T17:15:34.768Z,17.80
2018-05-02T17:18:38.056Z,17.73
2018-05-02T17:21:41.287Z,17.77
2018-05-02T17:24:45.647Z,17.76
2018-05-02T17:27:48.879Z,17.78
2018-05-02T17:30:52.168Z,17.82
2018-05-02T17:33:55.407Z,17.78
2018-05-02T17:36:58.671Z,17.78
2018-05-02T17:40:01.974Z,17.75
2018-05-02T17:43:05.183Z,17.79
2018-05-02T17:46:08.542Z,17.82
2018-05-02T17:49:11.859Z,17.68
2018-05-02T17:52:15.141Z,17.70
2018-05-02T17:55:19.455Z,17.75
2018-05-02T17:58:22.976Z,17.59
2018-05-02T18:01:26.384Z,17.50
2018-05-02T18:04:29.612Z,17.33
2018-05-02T18:07:33.141Z,17.21
2018-05-02T18:10:36.471Z,17.21
2018-05-02T18:13:40.017Z,17.16
2018-05-02T18:16:43.239Z,17.09
2018-05-02T18:19:46.536Z,17.08
2018-05-02T18:22:49.807Z,17.09
2018-05-02T18:25:53.063Z,17.17
2018-05-02T18:28:56.442Z,17.24
2018-05-02T18:32:00.185Z,17.27
2018-05-02T18:35:03.599Z,17.08
2018-05-02T18:38:06.887Z,16.92
2018-05-02T18:41:10.194Z,16.76
2018-05-02T18:44:13.580Z,16.75
2018-05-02T18:47:17.162Z,16.79
2018-05-02T18:50:20.435Z,16.81
2018-05-02T18:53:28.801Z,16.77
2018-05-02T18:56:32.024Z,16.86
2018-05-02T18:59:35.379Z,16.85
2018-05-02T19:02:38.673Z,16.83
2018-05-02T19:05:42.046Z,16.73
2018-05-02T19:08:47.574Z,16.73
2018-05-02T19:11:50.932Z,16.67
2018-05-02T19:14:54.207Z,16.62
2018-05-02T19:18:01.809Z,16.46
2018-05-02T19:21:05.149Z,16.40
2018-05-02T19:24:08.401Z,16.24
2018-05-02T19:27:11.579Z,16.21
2018-05-02T19:30:14.810Z,16.22
2018-05-02T19:34:21.580Z,16.17
2018-05-02T19:37:24.897Z,16.11
2018-05-02T19:40:32.260Z,15.99
2018-05-02T19:44:09.551Z,15.89
2018-05-02T19:47:13.054Z,15.76
2018-05-02T19:50:16.965Z,15.75
2018-05-02T19:53:20.884Z,15.67
2018-05-02T19:56:25.030Z,15.62
2018-05-02T19:59:28.934Z,15.64
2018-05-02T20:03:02.997Z,15.50
2018-05-02T20:06:06.982Z,15.45
2018-05-02T20:10:13.633Z,15.52
2018-05-02T20:14:24.115Z,15.66
2018-05-02T20:17:27.604Z,15.70
2018-05-02T20:20:31.309Z,15.68
2018-05-02T20:23:35.119Z,15.66
2018-05-02T20:26:38.732Z,15.55
2018-05-02T20:29:42.219Z,15.46
2018-05-02T20:32:46.133Z,15.37
2018-05-02T20:35:49.709Z,15.39
2018-05-02T20:38:53.301Z,15.44
2018-05-02T20:41:57.330Z,15.48
2018-05-02T20:45:01.205Z,15.43
2018-05-02T20:48:06.200Z,15.33
2018-05-02T20:51:12.220Z,15.24
2018-05-02T20:54:15.577Z,15.20
2018-05-02T20:57:18.904Z,15.09
2018-05-02T21:00:22.209Z,14.95
2018-05-02T21:03:25.589Z,14.86
2018-05-02T21:06:29.912Z,14.91
2018-05-02T21:09:33.289Z,14.93
2018-05-02T21:12:36.609Z,14.96
2018-05-02T21:15:40.053Z,14.91
2018-05-02T21:18:43.421Z,14.78
2018-05-02T21:21:46.852Z,14.80
2018-05-02T21:24:50.111Z,14.75
2018-05-02T21:27:53.499Z,14.63
2018-05-02T21:30:57.441Z,14.62
2018-05-02T21:34:00.840Z,14.58
2018-05-02T21:37:04.164Z,14.56
2018-05-02T21:40:07.547Z,14.59
2018-05-02T21:43:10.944Z,14.61
2018-05-02T21:46:14.298Z,14.63
2018-05-02T21:49:17.569Z,14.62
2018-05-02T21:52:21.190Z,14.54
2018-05-02T21:55:24.528Z,14.59
2018-05-02T21:58:28.199Z,14.62
2018-05-02T22:01:31.531Z,14.69
2018-05-02T22:04:34.962Z,14.72
2018-05-02T22:07:38.228Z,14.75
2018-05-02T22:10:41.674Z,14.72
2018-05-02T22:13:45.012Z,14.64
2018-05-02T22:16:48.289Z,14.36
2018-05-02T22:19:51.687Z,14.30
2018-05-02T22:22:55.060Z,14.27
2018-05-02T22:25:59.052Z,14.31
2018-05-02T22:29:23.191Z,14.31
2018-05-02T22:32:26.560Z,14.30
2018-05-02T22:35:30.599Z,14.27
2018-05-02T22:38:33.921Z,14.11
2018-05-02T22:41:37.241Z,13.98
2018-05-02T22:44:40.522Z,13.93
2018-05-02T22:47:43.961Z,13.78
2018-05-02T22:50:47.343Z,13.79
2018-05-02T22:53:50.546Z,13.78
2018-05-02T22:56:53.900Z,13.65
2018-05-02T22:59:57.210Z,13.56
2018-05-02T23:03:00.640Z,13.60
2018-05-02T23:06:04.066Z,13.67
2018-05-02T23:09:07.440Z,13.79
2018-05-02T23:12:10.807Z,13.77
2018-05-02T23:15:14.212Z,13.70
2018-05-02T23:18:17.623Z,13.71
2018-05-02T23:21:20.918Z,13.68
2018-05-02T23:24:24.190Z,13.64
2018-05-02T23:27:27.626Z,13.71
2018-05-02T23:30:32.001Z,13.71
2018-05-02T23:33:35.345Z,13.63
2018-05-02T23:36:38.831Z,13.51
2018-05-02T23:39:42.068Z,13.47
2018-05-02T23:42:45.423Z,13.53
2018-05-02T23:45:48.743Z,13.52
2018-05-02T23:48:53.005Z,13.45
2018-05-02T23:51:56.367Z,13.42
2018-05-02T23:54:59.740Z,13.50
2018-05-02T23:58:03.047Z,13.57
